sensor_id;sensor_type;location;lat;lon;timestamp;temperature;humidity
47961;DHT22;33721;48.852;9.936;2023-04-24T00:01:23;10.00;99.90
47961;DHT22;33721;48.852;9.936;2023-04-24T00:03:49;10.00;99.90
47961;DHT22;33721;48.852;9.936;2023-04-24T00:06:14;10.00;99.90
47961;DHT22;33721;48.852;9.936;2023-04-24T00:08:42;10.00;99.90
47961;DHT22;33721;48.852;9.936;2023-04-24T00:11:08;10.10;99.90
47961;DHT22;33721;48.852;9.936;2023-04-24T00:13:35;10.00;99.90
47961;DHT22;33721;48.852;9.936;2023-04-24T00:16:00;10.00;99.90
47961;DHT22;33721;48.852;9.936;2023-04-24T00:18:26;10.00;99.90
47961;DHT22;33721;48.852;9.936;2023-04-24T00:20:52;10.00;99.90
47961;DHT22;33721;48.852;9.936;2023-04-24T00:23:17;10.00;99.90
47961;DHT22;33721;48.852;9.936;2023-04-24T00:25:45;10.00;99.90
47961;DHT22;33721;48.852;9.936;2023-04-24T00:28:11;9.90;99.90
47961;DHT22;33721;48.852;9.936;2023-04-24T00:30:36;9.80;99.90
47961;DHT22;33721;48.852;9.936;2023-04-24T00:33:02;9.80;99.90
47961;DHT22;33721;48.852;9.936;2023-04-24T00:35:28;9.80;99.90
47961;DHT22;33721;48.852;9.936;2023-04-24T00:37:54;9.80;99.90
47961;DHT22;33721;48.852;9.936;2023-04-24T00:40:20;9.80;99.90
47961;DHT22;33721;48.852;9.936;2023-04-24T00:42:45;9.90;99.90
47961;DHT22;33721;48.852;9.936;2023-04-24T00:45:12;9.90;99.90
47961;DHT22;33721;48.852;9.936;2023-04-24T00:47:38;9.90;99.90
47961;DHT22;33721;48.852;9.936;2023-04-24T00:50:05;9.90;99.90
47961;DHT22;33721;48.852;9.936;2023-04-24T00:52:31;9.90;99.90
47961;DHT22;33721;48.852;9.936;2023-04-24T00:54:58;9.90;99.90
47961;DHT22;33721;48.852;9.936;2023-04-24T00:57:24;9.90;99.90
47961;DHT22;33721;48.852;9.936;2023-04-24T00:59:51;9.90;99.90
47961;DHT22;33721;48.852;9.936;2023-04-24T01:02:17;9.80;99.90
47961;DHT22;33721;48.852;9.936;2023-04-24T01:04:43;9.80;99.90
47961;DHT22;33721;48.852;9.936;2023-04-24T01:07:09;9.80;99.90
47961;DHT22;33721;48.852;9.936;2023-04-24T01:09:40;9.80;99.90
47961;DHT22;33721;48.852;9.936;2023-04-24T01:12:09;9.70;99.90
47961;DHT22;33721;48.852;9.936;2023-04-24T01:14:34;9.70;99.90
47961;DHT22;33721;48.852;9.936;2023-04-24T01:17:00;9.70;99.90
47961;DHT22;33721;48.852;9.936;2023-04-24T01:19:27;9.70;99.90
47961;DHT22;33721;48.852;9.936;2023-04-24T01:21:54;9.70;99.90
47961;DHT22;33721;48.852;9.936;2023-04-24T01:24:23;9.70;99.90
47961;DHT22;33721;48.852;9.936;2023-04-24T01:26:48;9.70;99.90
47961;DHT22;33721;48.852;9.936;2023-04-24T01:29:14;9.70;99.90
47961;DHT22;33721;48.852;9.936;2023-04-24T01:31:40;9.70;99.90
47961;DHT22;33721;48.852;9.936;2023-04-24T01:34:06;9.70;99.90
47961;DHT22;33721;48.852;9.936;2023-04-24T01:36:35;9.60;99.90
47961;DHT22;33721;48.852;9.936;2023-04-24T01:39:00;9.50;99.90
47961;DHT22;33721;48.852;9.936;2023-04-24T01:41:26;9.50;99.90
47961;DHT22;33721;48.852;9.936;2023-04-24T01:43:53;9.60;99.90
47961;DHT22;33721;48.852;9.936;2023-04-24T01:46:19;9.60;99.90
47961;DHT22;33721;48.852;9.936;2023-04-24T01:48:45;9.60;99.90
47961;DHT22;33721;48.852;9.936;2023-04-24T01:51:11;9.60;99.90
47961;DHT22;33721;48.852;9.936;2023-04-24T01:53:37;9.70;99.90
47961;DHT22;33721;48.852;9.936;2023-04-24T01:56:02;9.70;99.90
47961;DHT22;33721;48.852;9.936;2023-04-24T01:58:28;9.70;99.90
47961;DHT22;33721;48.852;9.936;2023-04-24T02:00:56;9.70;99.90
47961;DHT22;33721;48.852;9.936;2023-04-24T02:03:22;9.70;99.90
47961;DHT22;33721;48.852;9.936;2023-04-24T02:05:47;9.70;99.90
47961;DHT22;33721;48.852;9.936;2023-04-24T02:08:13;9.70;99.90
47961;DHT22;33721;48.852;9.936;2023-04-24T02:10:39;9.70;99.90
47961;DHT22;33721;48.852;9.936;2023-04-24T02:13:04;9.70;99.90
47961;DHT22;33721;48.852;9.936;2023-04-24T02:15:30;9.70;99.90
47961;DHT22;33721;48.852;9.936;2023-04-24T02:17:57;9.70;99.90
47961;DHT22;33721;48.852;9.936;2023-04-24T02:20:22;9.60;99.90
47961;DHT22;33721;48.852;9.936;2023-04-24T02:22:48;9.60;99.90
47961;DHT22;33721;48.852;9.936;2023-04-24T02:25:14;9.60;99.90
47961;DHT22;33721;48.852;9.936;2023-04-24T02:27:39;9.60;99.90
47961;DHT22;33721;48.852;9.936;2023-04-24T02:30:06;9.60;99.90
47961;DHT22;33721;48.852;9.936;2023-04-24T02:32:31;9.60;99.90
47961;DHT22;33721;48.852;9.936;2023-04-24T02:34:57;9.60;99.90
47961;DHT22;33721;48.852;9.936;2023-04-24T02:37:22;9.60;99.90
47961;DHT22;33721;48.852;9.936;2023-04-24T02:39:48;9.60;99.90
47961;DHT22;33721;48.852;9.936;2023-04-24T02:42:14;9.50;99.90
47961;DHT22;33721;48.852;9.936;2023-04-24T02:44:40;9.50;99.90
47961;DHT22;33721;48.852;9.936;2023-04-24T02:47:06;9.50;99.90
47961;DHT22;33721;48.852;9.936;2023-04-24T02:49:33;9.40;99.90
47961;DHT22;33721;48.852;9.936;2023-04-24T02:51:58;9.40;99.90
47961;DHT22;33721;48.852;9.936;2023-04-24T02:54:24;9.40;99.90
47961;DHT22;33721;48.852;9.936;2023-04-24T02:56:50;9.50;99.90
47961;DHT22;33721;48.852;9.936;2023-04-24T02:59:15;9.50;99.90
47961;DHT22;33721;48.852;9.936;2023-04-24T03:01:41;9.50;99.90
47961;DHT22;33721;48.852;9.936;2023-04-24T03:04:07;9.60;99.90
47961;DHT22;33721;48.852;9.936;2023-04-24T03:06:32;9.60;99.90
47961;DHT22;33721;48.852;9.936;2023-04-24T03:08:58;9.50;99.90
47961;DHT22;33721;48.852;9.936;2023-04-24T03:11:24;9.60;99.90
47961;DHT22;33721;48.852;9.936;2023-04-24T03:13:49;9.40;99.90
47961;DHT22;33721;48.852;9.936;2023-04-24T03:16:15;9.40;99.90
47961;DHT22;33721;48.852;9.936;2023-04-24T03:18:40;9.40;99.90
47961;DHT22;33721;48.852;9.936;2023-04-24T03:21:06;9.40;99.90
47961;DHT22;33721;48.852;9.936;2023-04-24T03:23:31;9.40;99.90
47961;DHT22;33721;48.852;9.936;2023-04-24T03:25:57;9.30;99.90
47961;DHT22;33721;48.852;9.936;2023-04-24T03:28:23;9.30;99.90
47961;DHT22;33721;48.852;9.936;2023-04-24T03:30:50;9.30;99.90
47961;DHT22;33721;48.852;9.936;2023-04-24T03:33:15;9.30;99.90
47961;DHT22;33721;48.852;9.936;2023-04-24T03:35:41;9.40;99.90
47961;DHT22;33721;48.852;9.936;2023-04-24T03:38:07;9.40;99.90
47961;DHT22;33721;48.852;9.936;2023-04-24T03:40:32;9.40;99.90
47961;DHT22;33721;48.852;9.936;2023-04-24T03:42:59;9.50;99.90
47961;DHT22;33721;48.852;9.936;2023-04-24T03:45:24;9.50;99.90
47961;DHT22;33721;48.852;9.936;2023-04-24T03:47:50;9.60;99.90
47961;DHT22;33721;48.852;9.936;2023-04-24T03:50:16;9.60;99.90
47961;DHT22;33721;48.852;9.936;2023-04-24T03:52:41;9.60;99.90
47961;DHT22;33721;48.852;9.936;2023-04-24T03:55:07;9.70;99.90
47961;DHT22;33721;48.852;9.936;2023-04-24T03:57:33;9.60;99.90
47961;DHT22;33721;48.852;9.936;2023-04-24T03:59:58;9.60;99.90
47961;DHT22;33721;48.852;9.936;2023-04-24T04:02:24;9.70;99.90
47961;DHT22;33721;48.852;9.936;2023-04-24T04:04:49;9.60;99.90
47961;DHT22;33721;48.852;9.936;2023-04-24T04:07:15;9.60;99.90
47961;DHT22;33721;48.852;9.936;2023-04-24T04:09:41;9.50;99.90
47961;DHT22;33721;48.852;9.936;2023-04-24T04:12:06;9.50;99.90
47961;DHT22;33721;48.852;9.936;2023-04-24T04:14:32;9.50;99.90
47961;DHT22;33721;48.852;9.936;2023-04-24T04:16:57;9.50;99.90
47961;DHT22;33721;48.852;9.936;2023-04-24T04:19:23;9.40;99.90
47961;DHT22;33721;48.852;9.936;2023-04-24T04:21:49;9.50;99.90
47961;DHT22;33721;48.852;9.936;2023-04-24T04:24:19;9.40;99.90
47961;DHT22;33721;48.852;9.936;2023-04-24T04:26:46;9.40;99.90
47961;DHT22;33721;48.852;9.936;2023-04-24T04:29:13;9.40;99.90
47961;DHT22;33721;48.852;9.936;2023-04-24T04:31:38;9.50;99.90
47961;DHT22;33721;48.852;9.936;2023-04-24T04:34:04;9.50;99.90
47961;DHT22;33721;48.852;9.936;2023-04-24T04:36:30;9.50;99.90
47961;DHT22;33721;48.852;9.936;2023-04-24T04:38:56;9.50;99.90
47961;DHT22;33721;48.852;9.936;2023-04-24T04:41:22;9.50;99.90
47961;DHT22;33721;48.852;9.936;2023-04-24T04:43:48;9.60;99.90
47961;DHT22;33721;48.852;9.936;2023-04-24T04:46:13;9.60;99.90
47961;DHT22;33721;48.852;9.936;2023-04-24T04:48:39;9.60;99.90
47961;DHT22;33721;48.852;9.936;2023-04-24T04:51:05;9.60;99.90
47961;DHT22;33721;48.852;9.936;2023-04-24T04:53:31;9.60;99.90
47961;DHT22;33721;48.852;9.936;2023-04-24T04:55:57;9.50;99.90
47961;DHT22;33721;48.852;9.936;2023-04-24T04:58:23;9.50;99.90
47961;DHT22;33721;48.852;9.936;2023-04-24T05:00:48;9.50;99.90
47961;DHT22;33721;48.852;9.936;2023-04-24T05:03:14;9.50;99.90
47961;DHT22;33721;48.852;9.936;2023-04-24T05:05:40;9.50;99.90
47961;DHT22;33721;48.852;9.936;2023-04-24T05:08:07;9.50;99.90
47961;DHT22;33721;48.852;9.936;2023-04-24T05:10:33;9.50;99.90
47961;DHT22;33721;48.852;9.936;2023-04-24T05:12:59;9.40;99.90
47961;DHT22;33721;48.852;9.936;2023-04-24T05:15:24;9.30;99.90
47961;DHT22;33721;48.852;9.936;2023-04-24T05:17:50;9.30;99.90
47961;DHT22;33721;48.852;9.936;2023-04-24T05:20:16;9.30;99.90
47961;DHT22;33721;48.852;9.936;2023-04-24T05:22:42;9.30;99.90
47961;DHT22;33721;48.852;9.936;2023-04-24T05:25:07;9.40;99.90
47961;DHT22;33721;48.852;9.936;2023-04-24T05:27:33;9.60;99.90
47961;DHT22;33721;48.852;9.936;2023-04-24T05:29:59;9.60;99.90
47961;DHT22;33721;48.852;9.936;2023-04-24T05:32:25;9.50;99.90
47961;DHT22;33721;48.852;9.936;2023-04-24T05:34:51;9.50;99.90
47961;DHT22;33721;48.852;9.936;2023-04-24T05:37:16;9.40;99.90
47961;DHT22;33721;48.852;9.936;2023-04-24T05:39:42;9.40;99.90
47961;DHT22;33721;48.852;9.936;2023-04-24T05:42:08;9.30;99.90
47961;DHT22;33721;48.852;9.936;2023-04-24T05:44:33;9.20;99.90
47961;DHT22;33721;48.852;9.936;2023-04-24T05:46:59;9.20;99.90
47961;DHT22;33721;48.852;9.936;2023-04-24T05:49:26;9.10;99.90
47961;DHT22;33721;48.852;9.936;2023-04-24T05:51:51;9.00;99.90
47961;DHT22;33721;48.852;9.936;2023-04-24T05:54:17;8.90;99.90
47961;DHT22;33721;48.852;9.936;2023-04-24T05:56:43;8.90;99.90
47961;DHT22;33721;48.852;9.936;2023-04-24T05:59:08;8.90;99.90
47961;DHT22;33721;48.852;9.936;2023-04-24T06:01:34;8.90;99.90
47961;DHT22;33721;48.852;9.936;2023-04-24T06:04:02;8.90;99.90
47961;DHT22;33721;48.852;9.936;2023-04-24T06:06:28;9.00;99.90
47961;DHT22;33721;48.852;9.936;2023-04-24T06:08:54;8.90;99.90
47961;DHT22;33721;48.852;9.936;2023-04-24T06:11:20;8.90;99.90
47961;DHT22;33721;48.852;9.936;2023-04-24T06:13:45;9.00;99.90
47961;DHT22;33721;48.852;9.936;2023-04-24T06:16:11;8.80;99.90
47961;DHT22;33721;48.852;9.936;2023-04-24T06:18:37;8.80;99.90
47961;DHT22;33721;48.852;9.936;2023-04-24T06:21:03;8.70;99.90
47961;DHT22;33721;48.852;9.936;2023-04-24T06:23:28;8.70;99.90
47961;DHT22;33721;48.852;9.936;2023-04-24T06:25:54;8.70;99.90
47961;DHT22;33721;48.852;9.936;2023-04-24T06:28:20;8.70;99.90
47961;DHT22;33721;48.852;9.936;2023-04-24T06:30:46;8.70;99.90
47961;DHT22;33721;48.852;9.936;2023-04-24T06:33:11;8.70;99.90
47961;DHT22;33721;48.852;9.936;2023-04-24T06:35:37;8.70;99.90
47961;DHT22;33721;48.852;9.936;2023-04-24T06:38:03;8.70;99.90
47961;DHT22;33721;48.852;9.936;2023-04-24T06:40:29;8.70;99.90
47961;DHT22;33721;48.852;9.936;2023-04-24T06:42:55;8.80;99.90
47961;DHT22;33721;48.852;9.936;2023-04-24T06:45:21;8.80;99.90
47961;DHT22;33721;48.852;9.936;2023-04-24T06:47:46;8.80;99.90
47961;DHT22;33721;48.852;9.936;2023-04-24T06:50:12;8.90;99.90
47961;DHT22;33721;48.852;9.936;2023-04-24T06:52:38;8.90;99.90
47961;DHT22;33721;48.852;9.936;2023-04-24T06:55:04;9.00;99.90
47961;DHT22;33721;48.852;9.936;2023-04-24T06:57:30;9.00;99.90
47961;DHT22;33721;48.852;9.936;2023-04-24T06:59:56;9.10;99.90
47961;DHT22;33721;48.852;9.936;2023-04-24T07:02:22;9.20;99.90
47961;DHT22;33721;48.852;9.936;2023-04-24T07:04:48;9.20;99.90
47961;DHT22;33721;48.852;9.936;2023-04-24T07:07:13;9.30;99.90
47961;DHT22;33721;48.852;9.936;2023-04-24T07:09:40;9.30;99.90
47961;DHT22;33721;48.852;9.936;2023-04-24T07:12:11;9.30;99.90
47961;DHT22;33721;48.852;9.936;2023-04-24T07:14:37;9.40;99.90
47961;DHT22;33721;48.852;9.936;2023-04-24T07:17:04;9.60;99.90
47961;DHT22;33721;48.852;9.936;2023-04-24T07:19:30;9.90;99.90
47961;DHT22;33721;48.852;9.936;2023-04-24T07:21:56;10.10;99.90
47961;DHT22;33721;48.852;9.936;2023-04-24T07:24:24;9.90;99.90
47961;DHT22;33721;48.852;9.936;2023-04-24T07:26:51;9.80;99.90
47961;DHT22;33721;48.852;9.936;2023-04-24T07:29:17;9.90;99.90
47961;DHT22;33721;48.852;9.936;2023-04-24T07:31:43;10.00;99.90
47961;DHT22;33721;48.852;9.936;2023-04-24T07:34:09;10.20;99.90
47961;DHT22;33721;48.852;9.936;2023-04-24T07:36:35;10.20;99.90
47961;DHT22;33721;48.852;9.936;2023-04-24T07:39:01;10.20;99.90
47961;DHT22;33721;48.852;9.936;2023-04-24T07:41:26;10.40;99.90
47961;DHT22;33721;48.852;9.936;2023-04-24T07:43:53;10.60;99.90
47961;DHT22;33721;48.852;9.936;2023-04-24T07:46:19;10.70;99.90
47961;DHT22;33721;48.852;9.936;2023-04-24T07:48:45;10.70;99.90
47961;DHT22;33721;48.852;9.936;2023-04-24T07:51:14;10.70;99.90
47961;DHT22;33721;48.852;9.936;2023-04-24T07:53:40;10.40;99.90
47961;DHT22;33721;48.852;9.936;2023-04-24T07:56:06;10.20;99.90
47961;DHT22;33721;48.852;9.936;2023-04-24T07:58:31;10.20;99.90
47961;DHT22;33721;48.852;9.936;2023-04-24T08:00:57;10.60;99.90
47961;DHT22;33721;48.852;9.936;2023-04-24T08:03:23;10.60;99.90
47961;DHT22;33721;48.852;9.936;2023-04-24T08:05:51;10.70;99.90
47961;DHT22;33721;48.852;9.936;2023-04-24T08:08:18;10.90;99.90
47961;DHT22;33721;48.852;9.936;2023-04-24T08:10:44;11.00;99.90
47961;DHT22;33721;48.852;9.936;2023-04-24T08:13:10;11.20;99.90
47961;DHT22;33721;48.852;9.936;2023-04-24T08:15:37;11.20;99.90
47961;DHT22;33721;48.852;9.936;2023-04-24T08:18:02;11.20;99.90
47961;DHT22;33721;48.852;9.936;2023-04-24T08:20:28;10.90;99.90
47961;DHT22;33721;48.852;9.936;2023-04-24T08:22:54;11.00;99.90
47961;DHT22;33721;48.852;9.936;2023-04-24T08:25:20;10.90;99.90
47961;DHT22;33721;48.852;9.936;2023-04-24T08:27:48;10.50;99.90
47961;DHT22;33721;48.852;9.936;2023-04-24T08:30:14;10.20;99.90
47961;DHT22;33721;48.852;9.936;2023-04-24T08:32:40;10.10;99.90
47961;DHT22;33721;48.852;9.936;2023-04-24T08:35:06;10.00;99.90
47961;DHT22;33721;48.852;9.936;2023-04-24T08:37:34;10.10;99.90
47961;DHT22;33721;48.852;9.936;2023-04-24T08:39:59;10.10;99.90
47961;DHT22;33721;48.852;9.936;2023-04-24T08:42:28;10.10;99.90
47961;DHT22;33721;48.852;9.936;2023-04-24T08:44:54;10.10;99.90
47961;DHT22;33721;48.852;9.936;2023-04-24T08:47:20;10.00;99.90
47961;DHT22;33721;48.852;9.936;2023-04-24T08:49:50;10.10;99.90
47961;DHT22;33721;48.852;9.936;2023-04-24T08:52:17;10.20;99.90
47961;DHT22;33721;48.852;9.936;2023-04-24T08:54:43;10.10;99.90
47961;DHT22;33721;48.852;9.936;2023-04-24T08:57:11;10.00;99.90
47961;DHT22;33721;48.852;9.936;2023-04-24T08:59:39;10.00;99.90
47961;DHT22;33721;48.852;9.936;2023-04-24T09:02:05;10.00;99.90
47961;DHT22;33721;48.852;9.936;2023-04-24T09:04:33;9.90;99.90
47961;DHT22;33721;48.852;9.936;2023-04-24T09:06:59;10.00;99.90
47961;DHT22;33721;48.852;9.936;2023-04-24T09:09:25;10.00;99.90
47961;DHT22;33721;48.852;9.936;2023-04-24T09:11:52;10.00;99.90
47961;DHT22;33721;48.852;9.936;2023-04-24T09:14:20;9.90;99.90
47961;DHT22;33721;48.852;9.936;2023-04-24T09:16:46;10.00;99.90
47961;DHT22;33721;48.852;9.936;2023-04-24T09:19:12;10.10;99.90
47961;DHT22;33721;48.852;9.936;2023-04-24T09:21:38;10.20;99.90
47961;DHT22;33721;48.852;9.936;2023-04-24T09:24:07;10.10;99.90
47961;DHT22;33721;48.852;9.936;2023-04-24T09:26:35;10.10;99.90
47961;DHT22;33721;48.852;9.936;2023-04-24T09:29:03;10.20;99.90
47961;DHT22;33721;48.852;9.936;2023-04-24T09:31:29;10.20;99.90
47961;DHT22;33721;48.852;9.936;2023-04-24T09:34:02;10.30;99.90
47961;DHT22;33721;48.852;9.936;2023-04-24T09:36:39;10.40;99.90
47961;DHT22;33721;48.852;9.936;2023-04-24T09:39:10;10.80;99.90
47961;DHT22;33721;48.852;9.936;2023-04-24T09:41:47;11.40;99.90
47961;DHT22;33721;48.852;9.936;2023-04-24T09:46:44;12.40;99.90
47961;DHT22;33721;48.852;9.936;2023-04-24T09:49:13;12.80;99.90
47961;DHT22;33721;48.852;9.936;2023-04-24T09:51:40;12.20;99.90
47961;DHT22;33721;48.852;9.936;2023-04-24T09:54:19;11.60;99.90
47961;DHT22;33721;48.852;9.936;2023-04-24T09:56:48;11.20;99.90
47961;DHT22;33721;48.852;9.936;2023-04-24T09:59:15;10.90;99.90
47961;DHT22;33721;48.852;9.936;2023-04-24T10:01:41;10.80;99.90
47961;DHT22;33721;48.852;9.936;2023-04-24T10:04:18;10.80;99.90
47961;DHT22;33721;48.852;9.936;2023-04-24T10:06:44;10.80;99.90
47961;DHT22;33721;48.852;9.936;2023-04-24T10:09:10;10.70;99.90
47961;DHT22;33721;48.852;9.936;2023-04-24T10:11:37;10.80;99.90
47961;DHT22;33721;48.852;9.936;2023-04-24T10:14:05;10.90;99.90
47961;DHT22;33721;48.852;9.936;2023-04-24T10:16:31;10.60;99.90
47961;DHT22;33721;48.852;9.936;2023-04-24T10:18:59;10.50;99.90
47961;DHT22;33721;48.852;9.936;2023-04-24T10:21:26;10.40;99.90
47961;DHT22;33721;48.852;9.936;2023-04-24T10:23:52;10.50;99.90
47961;DHT22;33721;48.852;9.936;2023-04-24T10:26:19;10.40;99.90
47961;DHT22;33721;48.852;9.936;2023-04-24T10:28:46;10.20;99.90
47961;DHT22;33721;48.852;9.936;2023-04-24T10:31:14;10.00;99.90
47961;DHT22;33721;48.852;9.936;2023-04-24T10:33:43;9.90;99.90
47961;DHT22;33721;48.852;9.936;2023-04-24T10:36:11;9.80;99.90
47961;DHT22;33721;48.852;9.936;2023-04-24T10:38:40;9.90;99.90
47961;DHT22;33721;48.852;9.936;2023-04-24T10:41:11;10.20;99.90
47961;DHT22;33721;48.852;9.936;2023-04-24T10:43:42;10.60;99.90
47961;DHT22;33721;48.852;9.936;2023-04-24T10:46:08;10.80;99.90
47961;DHT22;33721;48.852;9.936;2023-04-24T10:48:35;11.10;99.90
47961;DHT22;33721;48.852;9.936;2023-04-24T10:51:01;11.60;99.90
47961;DHT22;33721;48.852;9.936;2023-04-24T10:53:29;12.00;99.90
47961;DHT22;33721;48.852;9.936;2023-04-24T10:55:59;11.70;99.90
47961;DHT22;33721;48.852;9.936;2023-04-24T10:58:41;11.40;99.90
47961;DHT22;33721;48.852;9.936;2023-04-24T11:01:24;11.20;99.90
47961;DHT22;33721;48.852;9.936;2023-04-24T11:03:54;10.90;99.90
47961;DHT22;33721;48.852;9.936;2023-04-24T11:06:29;10.90;99.90
47961;DHT22;33721;48.852;9.936;2023-04-24T11:09:08;10.80;99.90
47961;DHT22;33721;48.852;9.936;2023-04-24T11:11:35;10.60;99.90
47961;DHT22;33721;48.852;9.936;2023-04-24T11:14:03;10.70;99.90
47961;DHT22;33721;48.852;9.936;2023-04-24T11:16:35;10.80;99.90
47961;DHT22;33721;48.852;9.936;2023-04-24T11:19:07;10.90;99.90
47961;DHT22;33721;48.852;9.936;2023-04-24T11:21:43;10.80;99.90
47961;DHT22;33721;48.852;9.936;2023-04-24T11:24:25;11.20;99.90
47961;DHT22;33721;48.852;9.936;2023-04-24T11:35:18;10.90;99.90
47961;DHT22;33721;48.852;9.936;2023-04-24T11:37:46;10.80;99.90
47961;DHT22;33721;48.852;9.936;2023-04-24T11:40:14;10.80;99.90
47961;DHT22;33721;48.852;9.936;2023-04-24T11:42:46;10.90;99.90
47961;DHT22;33721;48.852;9.936;2023-04-24T11:47:39;10.90;99.90
47961;DHT22;33721;48.852;9.936;2023-04-24T11:50:07;10.90;99.90
47961;DHT22;33721;48.852;9.936;2023-04-24T11:52:37;10.90;99.90
47961;DHT22;33721;48.852;9.936;2023-04-24T11:55:03;11.10;99.90
47961;DHT22;33721;48.852;9.936;2023-04-24T11:57:29;11.10;99.90
47961;DHT22;33721;48.852;9.936;2023-04-24T12:00:00;10.90;99.90
47961;DHT22;33721;48.852;9.936;2023-04-24T12:02:27;10.80;99.90
47961;DHT22;33721;48.852;9.936;2023-04-24T12:04:53;10.90;99.90
47961;DHT22;33721;48.852;9.936;2023-04-24T12:07:20;11.20;99.90
47961;DHT22;33721;48.852;9.936;2023-04-24T12:09:47;11.30;99.90
47961;DHT22;33721;48.852;9.936;2023-04-24T12:12:14;11.70;99.90
47961;DHT22;33721;48.852;9.936;2023-04-24T12:14:56;11.80;99.90
47961;DHT22;33721;48.852;9.936;2023-04-24T12:17:32;12.30;99.90
47961;DHT22;33721;48.852;9.936;2023-04-24T12:20:03;12.20;99.90
47961;DHT22;33721;48.852;9.936;2023-04-24T12:22:43;12.20;99.90
47961;DHT22;33721;48.852;9.936;2023-04-24T12:25:11;11.80;99.90
47961;DHT22;33721;48.852;9.936;2023-04-24T12:27:36;11.30;99.90
47961;DHT22;33721;48.852;9.936;2023-04-24T12:30:04;10.90;99.90
47961;DHT22;33721;48.852;9.936;2023-04-24T12:32:31;10.70;99.90
47961;DHT22;33721;48.852;9.936;2023-04-24T12:34:57;10.80;99.90
47961;DHT22;33721;48.852;9.936;2023-04-24T12:37:24;10.90;99.90
47961;DHT22;33721;48.852;9.936;2023-04-24T12:40:01;11.10;99.90
47961;DHT22;33721;48.852;9.936;2023-04-24T12:42:29;11.20;99.90
47961;DHT22;33721;48.852;9.936;2023-04-24T12:45:01;11.10;99.90
47961;DHT22;33721;48.852;9.936;2023-04-24T12:47:28;11.00;99.90
47961;DHT22;33721;48.852;9.936;2023-04-24T12:49:54;10.90;99.90
47961;DHT22;33721;48.852;9.936;2023-04-24T12:52:24;10.70;99.90
47961;DHT22;33721;48.852;9.936;2023-04-24T12:54:52;10.50;99.90
47961;DHT22;33721;48.852;9.936;2023-04-24T12:57:18;10.50;99.90
47961;DHT22;33721;48.852;9.936;2023-04-24T12:59:44;10.50;99.90
47961;DHT22;33721;48.852;9.936;2023-04-24T13:02:11;10.50;99.90
47961;DHT22;33721;48.852;9.936;2023-04-24T13:04:36;10.30;99.90
47961;DHT22;33721;48.852;9.936;2023-04-24T13:07:02;10.20;99.90
47961;DHT22;33721;48.852;9.936;2023-04-24T13:09:28;10.10;99.90
47961;DHT22;33721;48.852;9.936;2023-04-24T13:11:54;10.10;99.90
47961;DHT22;33721;48.852;9.936;2023-04-24T13:14:19;10.10;99.90
47961;DHT22;33721;48.852;9.936;2023-04-24T13:16:45;10.10;99.90
47961;DHT22;33721;48.852;9.936;2023-04-24T13:19:11;10.30;99.90
47961;DHT22;33721;48.852;9.936;2023-04-24T13:21:36;10.40;99.90
47961;DHT22;33721;48.852;9.936;2023-04-24T13:24:02;10.50;99.90
47961;DHT22;33721;48.852;9.936;2023-04-24T13:26:30;10.50;99.90
47961;DHT22;33721;48.852;9.936;2023-04-24T13:28:55;10.60;99.90
47961;DHT22;33721;48.852;9.936;2023-04-24T13:31:21;10.60;99.90
47961;DHT22;33721;48.852;9.936;2023-04-24T13:33:47;10.60;99.90
47961;DHT22;33721;48.852;9.936;2023-04-24T13:36:13;10.50;99.90
47961;DHT22;33721;48.852;9.936;2023-04-24T13:38:38;10.50;99.90
47961;DHT22;33721;48.852;9.936;2023-04-24T13:41:04;10.50;99.90
47961;DHT22;33721;48.852;9.936;2023-04-24T13:43:30;10.50;99.90
47961;DHT22;33721;48.852;9.936;2023-04-24T13:45:55;10.50;99.90
47961;DHT22;33721;48.852;9.936;2023-04-24T13:48:21;10.40;99.90
47961;DHT22;33721;48.852;9.936;2023-04-24T13:50:47;10.40;99.90
47961;DHT22;33721;48.852;9.936;2023-04-24T13:53:14;10.50;99.90
47961;DHT22;33721;48.852;9.936;2023-04-24T13:55:40;10.50;99.90
47961;DHT22;33721;48.852;9.936;2023-04-24T13:58:06;10.60;99.90
47961;DHT22;33721;48.852;9.936;2023-04-24T14:00:33;10.90;99.90
47961;DHT22;33721;48.852;9.936;2023-04-24T14:02:58;11.10;99.90
47961;DHT22;33721;48.852;9.936;2023-04-24T14:05:24;11.00;99.90
47961;DHT22;33721;48.852;9.936;2023-04-24T14:07:50;10.90;99.90
47961;DHT22;33721;48.852;9.936;2023-04-24T14:10:16;10.70;99.90
47961;DHT22;33721;48.852;9.936;2023-04-24T14:12:42;10.40;99.90
47961;DHT22;33721;48.852;9.936;2023-04-24T14:15:08;10.30;99.90
47961;DHT22;33721;48.852;9.936;2023-04-24T14:17:34;9.80;99.90
47961;DHT22;33721;48.852;9.936;2023-04-24T14:20:00;9.50;99.90
47961;DHT22;33721;48.852;9.936;2023-04-24T14:22:26;9.20;99.90
47961;DHT22;33721;48.852;9.936;2023-04-24T14:24:51;9.10;99.90
47961;DHT22;33721;48.852;9.936;2023-04-24T14:27:17;9.20;99.90
47961;DHT22;33721;48.852;9.936;2023-04-24T14:29:43;9.30;99.90
47961;DHT22;33721;48.852;9.936;2023-04-24T14:32:10;9.70;99.90
47961;DHT22;33721;48.852;9.936;2023-04-24T14:34:36;9.80;99.90
47961;DHT22;33721;48.852;9.936;2023-04-24T14:37:01;9.70;99.90
47961;DHT22;33721;48.852;9.936;2023-04-24T14:39:28;9.60;99.90
47961;DHT22;33721;48.852;9.936;2023-04-24T14:41:54;9.70;99.90
47961;DHT22;33721;48.852;9.936;2023-04-24T14:44:20;9.90;99.90
47961;DHT22;33721;48.852;9.936;2023-04-24T14:46:48;9.80;99.90
47961;DHT22;33721;48.852;9.936;2023-04-24T14:49:13;9.70;99.90
47961;DHT22;33721;48.852;9.936;2023-04-24T14:51:39;9.80;99.90
47961;DHT22;33721;48.852;9.936;2023-04-24T14:54:06;9.80;99.90
47961;DHT22;33721;48.852;9.936;2023-04-24T14:56:32;9.80;99.90
47961;DHT22;33721;48.852;9.936;2023-04-24T14:58:57;9.40;99.90
47961;DHT22;33721;48.852;9.936;2023-04-24T15:01:23;9.20;99.90
47961;DHT22;33721;48.852;9.936;2023-04-24T15:03:49;9.00;99.90
47961;DHT22;33721;48.852;9.936;2023-04-24T15:06:15;8.70;99.90
47961;DHT22;33721;48.852;9.936;2023-04-24T15:08:41;8.30;99.90
47961;DHT22;33721;48.852;9.936;2023-04-24T15:11:08;8.10;99.90
47961;DHT22;33721;48.852;9.936;2023-04-24T15:13:34;8.10;99.90
47961;DHT22;33721;48.852;9.936;2023-04-24T15:16:00;8.30;99.90
47961;DHT22;33721;48.852;9.936;2023-04-24T15:18:25;8.40;99.90
47961;DHT22;33721;48.852;9.936;2023-04-24T15:20:53;8.50;99.90
47961;DHT22;33721;48.852;9.936;2023-04-24T15:23:18;8.60;99.90
47961;DHT22;33721;48.852;9.936;2023-04-24T15:25:44;8.70;99.90
47961;DHT22;33721;48.852;9.936;2023-04-24T15:28:10;8.80;99.90
47961;DHT22;33721;48.852;9.936;2023-04-24T15:30:35;8.90;99.90
47961;DHT22;33721;48.852;9.936;2023-04-24T15:33:01;9.10;99.90
47961;DHT22;33721;48.852;9.936;2023-04-24T15:35:27;9.10;99.90
47961;DHT22;33721;48.852;9.936;2023-04-24T15:37:53;9.10;99.90
47961;DHT22;33721;48.852;9.936;2023-04-24T15:40:18;9.10;99.90
47961;DHT22;33721;48.852;9.936;2023-04-24T15:42:44;9.20;99.90
47961;DHT22;33721;48.852;9.936;2023-04-24T15:45:10;9.40;99.90
47961;DHT22;33721;48.852;9.936;2023-04-24T15:47:37;9.50;99.90
47961;DHT22;33721;48.852;9.936;2023-04-24T15:50:04;9.50;99.90